Sunday, March 29, 2015
22:25 UTC
  |  Log In   |  Register Free
Airport Search:

Foothills Regional Airport
(KMRN)

Foothills Regional Airport Diagram
No Airport Diagram Available

FAA data valid effective March 05, 2015 - April 30, 2015 (unless otherwise noted).

 
 
 
 
 
 
 
 
 
 
 
 
 
 

Current Aviation Weather for Foothills Regional Airport (KMRN)

The most recent METAR observation for KMRN was updated at: 1411
METAR Summary (Translated METAR)
KMRN
251355Z AUTO 36003KT 7SM -RA OVC015 11/08 A3032 RMK AO2 T01130080
KHKY
251353Z 06006KT 3SM -RA BR OVC009 10/08 A3027 RMK AO2 RAB27 SLP238 P0001 T01000083
(11.8 nm SE from KMRN)
KFQD
251355Z AUTO 02003KT 4SM RA OVC012 11/11 A3027 RMK AO2 P0003 T01130106
(28.3 nm SW from KMRN)
TAF Summary (Translated TAF)
KHKY
(11.8 nm SE from KMRN)
251404Z 2514/2612 06006KT 3SM -RA BR OVC007 TEMPO 2514/2515 6SM -RADZ OVC009 FM251900 05006KT 6SM -RA OVC009 FM260000 03004KT 6SM -RA OVC007 FM260300 03004KT P6SM -RA BKN003 OVC008
  Airport Weather Conditions for KMRN

 Current Weather at MRN

Fair
Southwest winds at 9.2 mph
MRN NOAA Radar

Pressure: 30.27 in
Wind: Southwest at 9.2 MPH (8 KT)
Visibility: 10.00 mi


Airport Weather Forecast for KMRN

Translated METAR and TAF for KMRN
Translated METAR for KMRN (2224 UTC 29 March 2015)
found at http://aviationweather.gov/adds/metars/
 
METAR text: KMRN 292215Z AUTO 19007KT 10SM CLR A3027 RMK AO2
Conditions at: KMRN (MORGANTON/LENOIR, NC, US) observed 2215 UTC 29 March 2015
Temperature: missing
Dewpoint: missing
Pressure (altimeter): 30.27 inches Hg (1025.1 mb)
Winds: from the S (190 degrees) at 8 MPH (7 knots; 3.6 m/s)
Visibility: 10 or more miles (16+ km)
Ceiling: at least 12,000 feet AGL
Clouds: sky clear below 12,000 feet AGL
Weather: automated observation with no human augmentation;
there may or may not be significant weather present at this time
Translated TAF for KMRN

There is no translated TAF available for this airport

Find All Airport Services Find A Hotel Find A Rental Car Find A Golf Course Find A Restaurant $100 Hamburger



FBO's on the Field
FBO Company Facility Photos Services Transportation Aviation Fuel Prices: Prices include tax
Catering Weather Repair Courtesy Rental Type 100LL JetA JetA+ MOGAS 8087
 
Foothills Aviation

This FBO has not yet been rated
FS:Shell
Last Updated: Feb-24
Login to update fuel prices
SS:
Contact Foothills AviationMore FBO Information
 
Add another FBO Facility Photos Catering Weather Repair Courtesy Rental Type 100LL JetA JetA+ MOGAS 8087
Services Transportation Aviation Fuel Prices: Prices include tax


model-print
model-print
model-print
model-print